Barksdale Air Force Base
KBAD : now visible

Airfield :











YOU CAN JOIN US ON...

 
LOGIN :

Register | Disclaimer

   EN    FR    IT 

 









Legend :    VFR   Marginal VFR   IFR   Intensive IFR   Very Intensive IFR
Visi :
Ceiling :
>= 8 km
>= 3000ft
5 to 8 km
1000 to 3000 ft
1500m to 5 km
500 to 1000 ft
800 to 1500m
200 to 500 ft
< 800m
< 200 ft
Symbols :   Thunderstorms  Fog  Heavy snow  Heavy precipitations  Wind > 20 kt






- Airport Elevation : 166 ft


KBAD - Barksdale Air Force Base

CURRENT METAR :
  • 211756Z AUTO 32011KT 10SM CLR 30/18 A3012 RMK AO2 SLP201 T02990177 10301 20161 58011

EXPIRED METARs :
  • 211656Z AUTO 29005KT 10SM CLR 28/18 A3014 RMK AO2 SLP208 T02830175
  • 211556Z AUTO 30005KT 10SM CLR 26/18 A3016 RMK AO2 SLP215 T02630184

TAF AMD TAF KBAD
Valid from the 21 at 14:00 until the 22 at 18:00 UTC


211440Z 2114/2218 32008KT 9999 FEW040 QNH3009INS
BECMG 2203/2204 04004KT 9999 SKC QNH3004INS TX30/2121Z TN11/2212Z
KZFW FIR / North America



MET'MAP, your aeronautical weather chart ! - Copyright ORBIFLY December 2007 - Disclaimer

ORBIFLY MET'MAP TEAM :

Programming & Development : Alexandra Zaïnal
Concept & original design : Baudouin d'Aumeries
Assistance for programming : Marc-Olivier Méhu
Technical & hardware support : Manuel Goepfert

Contact : metmap@orbifly.com




SOURCES & CREDITS :

   NOAA       Earth
Advisory